Time;durP1;ratioP1;P1;durP2;ratioP2;P2;SDS_P1;SDS_P2;PMS_P1;PMS_P2;Temp;Humidity;BMP_temperature;BMP_pressure;BME280_temperature;BME280_humidity;BME280_pressure;Samples;Min_cycle;Max_cycle;Signal;HPM_P1;HPM_P2
2021/10/03 00:01:58;;;;;;;7.28;5.82;;;13.80;73.00;;;;;;5055595;28;20404;-67
2021/10/03 00:04:26;;;;;;;7.22;5.95;;;13.70;73.00;;;;;;5056084;28;20064;-67
2021/10/03 00:06:54;;;;;;;7.10;5.78;;;13.70;73.00;;;;;;5055214;28;20033;-68
2021/10/03 00:09:21;;;;;;;7.43;5.90;;;13.70;73.20;;;;;;5055727;28;20131;-67
2021/10/03 00:11:48;;;;;;;6.70;6.00;;;13.70;73.40;;;;;;5051754;28;20411;-68
2021/10/03 00:14:16;;;;;;;7.05;5.82;;;13.60;73.30;;;;;;5055536;28;20036;-68
2021/10/03 00:16:42;;;;;;;6.70;5.47;;;13.60;73.40;;;;;;5054554;28;20090;-67
2021/10/03 00:19:08;;;;;;;7.03;5.45;;;13.60;73.50;;;;;;5055760;28;20052;-67
2021/10/03 00:21:34;;;;;;;6.88;5.68;;;13.60;73.70;;;;;;5057156;28;20077;-68
2021/10/03 00:23:59;;;;;;;8.20;5.57;;;13.60;73.80;;;;;;5055700;28;20021;-67
2021/10/03 00:26:25;;;;;;;6.03;5.43;;;13.60;73.90;;;;;;5055315;28;20040;-67
2021/10/03 00:28:51;;;;;;;6.10;5.43;;;13.60;73.90;;;;;;5051437;28;20032;-68
2021/10/03 00:31:17;;;;;;;6.30;5.43;;;13.60;74.00;;;;;;5056755;28;20408;-68
2021/10/03 00:33:42;;;;;;;8.27;5.60;;;13.60;74.00;;;;;;5054999;28;20059;-67
2021/10/03 00:36:08;;;;;;;7.50;5.30;;;13.60;73.90;;;;;;5055820;28;20519;-67
2021/10/03 00:38:34;;;;;;;7.30;5.10;;;13.60;73.90;;;;;;5055962;28;20119;-66
2021/10/03 00:41:00;;;;;;;7.22;5.97;;;13.60;73.90;;;;;;5054213;28;20431;-67
2021/10/03 00:43:25;;;;;;;9.88;6.55;;;13.60;73.90;;;;;;5054007;28;20043;-67
2021/10/03 00:45:52;;;;;;;11.13;7.38;;;13.70;74.00;;;;;;5053650;28;20025;-66
2021/10/03 00:48:18;;;;;;;13.57;8.75;;;13.70;74.00;;;;;;5053823;28;20420;-67
2021/10/03 00:50:46;;;;;;;24.13;12.25;;;13.70;74.00;;;;;;5053989;28;20049;-67
2021/10/03 00:53:15;;;;;;;19.05;10.48;;;13.60;73.90;;;;;;5071233;28;20056;-67
2021/10/03 00:55:41;;;;;;;23.17;12.38;;;13.60;74.00;;;;;;5055700;28;20345;-67
2021/10/03 00:58:08;;;;;;;21.60;11.60;;;13.60;74.00;;;;;;5055491;28;20044;-67
2021/10/03 01:00:36;;;;;;;19.73;10.73;;;13.60;74.20;;;;;;5052887;28;20503;-67
2021/10/03 01:03:03;;;;;;;19.20;10.48;;;13.60;74.30;;;;;;5050017;28;20028;-67
2021/10/03 01:05:29;;;;;;;14.73;8.98;;;13.50;74.30;;;;;;5054356;28;20040;-67
2021/10/03 01:07:56;;;;;;;15.90;8.75;;;13.50;74.40;;;;;;5055616;28;20075;-67
2021/10/03 01:10:24;;;;;;;14.45;8.82;;;13.40;74.40;;;;;;5052999;28;20040;-67
2021/10/03 01:12:55;;;;;;;12.48;8.00;;;13.40;74.60;;;;;;5031227;28;20112;-68
2021/10/03 01:15:21;;;;;;;11.15;7.65;;;13.40;74.60;;;;;;5035412;28;20575;-67
2021/10/03 01:17:47;;;;;;;10.85;7.75;;;13.30;74.60;;;;;;5034455;28;20037;-67
2021/10/03 01:20:13;;;;;;;13.38;7.45;;;13.30;74.90;;;;;;5034337;28;20441;-67
2021/10/03 01:22:38;;;;;;;8.00;6.82;;;13.30;74.90;;;;;;5033815;28;20125;-67
2021/10/03 01:25:07;;;;;;;8.27;5.75;;;13.30;75.10;;;;;;5034782;28;20112;-67
2021/10/03 01:27:33;;;;;;;18.15;8.75;;;13.20;75.20;;;;;;5035448;28;20090;-67
2021/10/03 01:29:58;;;;;;;10.48;7.40;;;13.20;75.40;;;;;;5035092;28;20033;-67
2021/10/03 01:32:24;;;;;;;9.55;6.88;;;13.20;75.80;;;;;;5032566;28;20045;-67
2021/10/03 01:34:50;;;;;;;9.52;6.65;;;13.10;75.80;;;;;;5036069;28;20063;-67
2021/10/03 01:37:16;;;;;;;12.70;6.90;;;13.10;76.10;;;;;;5033738;28;20033;-67
2021/10/03 01:39:42;;;;;;;8.90;6.80;;;13.10;76.50;;;;;;5034138;28;20600;-66
2021/10/03 01:42:08;;;;;;;7.47;5.97;;;13.10;76.50;;;;;;5034055;28;20120;-66
2021/10/03 01:44:34;;;;;;;8.43;6.30;;;13.10;76.60;;;;;;5031218;28;20029;-67
2021/10/03 01:47:00;;;;;;;7.68;6.45;;;13.10;76.50;;;;;;5034141;28;20304;-67
2021/10/03 01:49:27;;;;;;;8.52;6.85;;;13.10;76.50;;;;;;5034402;28;20057;-67
2021/10/03 01:51:53;;;;;;;7.82;6.30;;;13.00;76.40;;;;;;5035197;28;20060;-67
2021/10/03 01:54:19;;;;;;;14.45;8.80;;;13.00;76.30;;;;;;5036243;28;20072;-66
2021/10/03 01:56:45;;;;;;;14.40;8.32;;;13.00;76.30;;;;;;5035822;28;20116;-67
2021/10/03 01:59:10;;;;;;;23.50;11.85;;;13.00;76.40;;;;;;5035943;28;20042;-66
2021/10/03 02:01:43;;;;;;;25.85;11.93;;;13.00;76.40;;;;;;5034448;28;20032;-67
2021/10/03 02:04:12;;;;;;;24.13;12.35;;;13.00;76.50;;;;;;5034161;28;20068;-67
2021/10/03 02:06:43;;;;;;;22.02;11.00;;;12.90;76.60;;;;;;5034357;28;20734;-67
2021/10/03 02:09:10;;;;;;;18.35;9.95;;;12.90;76.60;;;;;;5036240;28;20038;-67
2021/10/03 02:11:42;;;;;;;14.30;8.10;;;13.00;76.50;;;;;;5031465;28;20060;-67
2021/10/03 02:14:09;;;;;;;15.07;8.88;;;13.00;76.70;;;;;;5036835;28;20083;-66
2021/10/03 02:16:34;;;;;;;13.88;8.23;;;12.90;76.50;;;;;;5037245;28;20030;-67
2021/10/03 02:19:00;;;;;;;12.05;7.75;;;13.00;76.50;;;;;;5038898;28;20029;-67
2021/10/03 02:21:28;;;;;;;8.95;7.20;;;13.00;76.50;;;;;;5038162;28;20049;-67
2021/10/03 02:23:53;;;;;;;10.60;7.10;;;13.00;76.80;;;;;;5037610;28;20038;-67
2021/10/03 02:26:19;;;;;;;8.77;6.50;;;13.00;76.90;;;;;;5037950;28;20029;-67
2021/10/03 02:28:44;;;;;;;8.55;6.43;;;13.00;77.10;;;;;;5037123;28;20045;-67
2021/10/03 02:31:12;;;;;;;8.15;6.30;;;13.00;77.10;;;;;;5037528;28;20037;-67
2021/10/03 02:33:40;;;;;;;7.38;6.07;;;13.00;77.20;;;;;;5035798;28;20029;-67
2021/10/03 02:36:07;;;;;;;7.10;6.28;;;13.00;77.20;;;;;;5038319;28;20032;-67
2021/10/03 02:38:34;;;;;;;8.10;6.50;;;13.00;77.10;;;;;;5036714;28;20029;-66
2021/10/03 02:41:02;;;;;;;9.23;6.13;;;13.00;77.10;;;;;;5036834;28;20060;-66
2021/10/03 02:43:31;;;;;;;8.27;6.90;;;13.00;77.10;;;;;;5036509;28;20075;-66
2021/10/03 02:45:59;;;;;;;6.63;5.93;;;13.00;77.20;;;;;;5038238;28;20033;-67
2021/10/03 02:48:28;;;;;;;6.82;5.93;;;13.00;77.10;;;;;;5034561;28;20184;-67
2021/10/03 02:50:54;;;;;;;6.75;6.05;;;13.10;77.20;;;;;;5053887;28;20060;-67
2021/10/03 02:53:22;;;;;;;7.57;6.68;;;13.10;77.00;;;;;;5036053;28;20039;-67
2021/10/03 02:55:48;;;;;;;6.68;5.78;;;13.10;77.20;;;;;;5037479;28;20033;-68
2021/10/03 02:58:14;;;;;;;7.80;5.97;;;13.00;77.00;;;;;;5036106;28;20033;-67
2021/10/03 03:00:41;;;;;;;7.20;6.13;;;13.10;77.00;;;;;;5037730;28;20051;-66
2021/10/03 03:03:07;;;;;;;7.78;6.40;;;13.10;77.00;;;;;;5035609;28;20036;-67
2021/10/03 03:05:33;;;;;;;7.78;6.10;;;13.10;76.80;;;;;;5038280;28;20029;-67
2021/10/03 03:08:00;;;;;;;8.38;6.30;;;13.00;76.60;;;;;;5037095;28;20401;-67
2021/10/03 03:10:26;;;;;;;7.57;5.90;;;13.00;76.50;;;;;;5036188;28;20042;-67
2021/10/03 03:12:52;;;;;;;7.43;5.88;;;13.00;76.50;;;;;;5037129;28;20059;-67
2021/10/03 03:15:17;;;;;;;6.72;5.88;;;13.00;76.50;;;;;;5037024;28;20037;-66
2021/10/03 03:17:43;;;;;;;7.63;6.22;;;13.00;76.50;;;;;;5035645;28;20064;-67
2021/10/03 03:20:09;;;;;;;7.50;5.55;;;13.00;76.50;;;;;;5035437;28;20116;-66
2021/10/03 03:22:35;;;;;;;6.43;5.75;;;13.00;76.60;;;;;;5036650;28;20029;-67
2021/10/03 03:25:03;;;;;;;7.75;5.68;;;13.00;76.60;;;;;;5037412;28;20034;-66
2021/10/03 03:27:29;;;;;;;6.78;6.07;;;13.00;76.60;;;;;;5038165;28;20187;-67
2021/10/03 03:29:54;;;;;;;7.18;6.00;;;13.00;76.60;;;;;;5037557;28;20076;-67
2021/10/03 03:32:20;;;;;;;7.03;6.22;;;12.90;76.60;;;;;;5037486;28;20037;-66
2021/10/03 03:34:46;;;;;;;6.93;5.55;;;12.90;76.60;;;;;;5037266;28;20039;-66
2021/10/03 03:37:12;;;;;;;7.93;6.25;;;12.90;76.60;;;;;;5044978;28;20029;-66
2021/10/03 03:39:37;;;;;;;8.30;6.07;;;12.90;76.70;;;;;;5057007;28;20025;-67
2021/10/03 03:42:03;;;;;;;8.70;6.72;;;12.90;76.60;;;;;;5057849;28;20025;-66
2021/10/03 03:44:31;;;;;;;8.13;6.55;;;12.90;76.80;;;;;;5055709;28;20081;-67
2021/10/03 03:46:57;;;;;;;8.43;6.65;;;12.90;77.00;;;;;;5054432;28;20025;-66
2021/10/03 03:49:23;;;;;;;8.07;6.45;;;12.90;77.00;;;;;;5055621;28;20068;-66
2021/10/03 03:51:48;;;;;;;9.43;6.72;;;12.90;77.00;;;;;;5057080;28;20400;-66
2021/10/03 03:54:14;;;;;;;8.18;6.43;;;12.90;76.80;;;;;;5054249;28;20130;-67
2021/10/03 03:56:40;;;;;;;7.80;6.47;;;12.90;76.60;;;;;;5055210;28;20040;-67
2021/10/03 03:59:05;;;;;;;8.00;6.43;;;12.90;76.60;;;;;;5055321;28;20124;-66
2021/10/03 04:01:31;;;;;;;7.60;6.30;;;12.80;76.50;;;;;;5056487;28;20048;-66
2021/10/03 04:03:56;;;;;;;10.07;6.50;;;12.80;76.60;;;;;;5054880;28;20036;-67
2021/10/03 04:06:22;;;;;;;7.93;6.00;;;12.70;76.60;;;;;;5055383;28;20029;-66
2021/10/03 04:08:48;;;;;;;7.43;6.30;;;12.70;76.70;;;;;;5056983;28;20037;-66
2021/10/03 04:11:14;;;;;;;7.10;6.40;;;12.70;76.80;;;;;;5052918;28;20034;-66
2021/10/03 04:13:42;;;;;;;9.95;6.28;;;12.70;76.80;;;;;;5057499;28;20056;-66
2021/10/03 04:16:08;;;;;;;7.97;6.30;;;12.60;76.80;;;;;;5058087;28;20036;-66
2021/10/03 04:18:34;;;;;;;8.60;6.35;;;12.60;76.60;;;;;;5056161;28;20522;-66
2021/10/03 04:21:00;;;;;;;9.07;6.03;;;12.60;76.60;;;;;;5054129;28;20021;-67
2021/10/03 04:23:25;;;;;;;6.60;5.47;;;12.60;76.60;;;;;;5053334;28;20055;-67
2021/10/03 04:25:51;;;;;;;7.25;5.88;;;12.50;76.60;;;;;;5053669;28;20033;-66
2021/10/03 04:28:17;;;;;;;8.30;6.10;;;12.50;76.70;;;;;;5053919;28;20123;-66
2021/10/03 04:30:43;;;;;;;9.90;6.40;;;12.50;76.80;;;;;;5056591;28;20040;-66
2021/10/03 04:33:09;;;;;;;7.18;5.95;;;12.50;76.80;;;;;;5055115;28;20415;-67
2021/10/03 04:35:35;;;;;;;13.70;7.63;;;12.50;76.80;;;;;;5056016;28;20039;-67
2021/10/03 04:38:00;;;;;;;12.45;7.65;;;12.40;76.80;;;;;;5055609;28;20377;-67
2021/10/03 04:40:26;;;;;;;10.48;7.35;;;12.40;76.90;;;;;;5054536;28;20060;-66
2021/10/03 04:42:52;;;;;;;12.70;8.07;;;12.40;76.90;;;;;;5056193;28;20569;-66
2021/10/03 04:45:18;;;;;;;13.20;8.85;;;12.40;77.70;;;;;;5056572;28;20036;-66
2021/10/03 04:47:45;;;;;;;11.52;8.10;;;12.40;76.80;;;;;;5057084;28;20033;-66
2021/10/03 04:50:12;;;;;;;9.75;7.90;;;12.40;76.90;;;;;;5055744;28;20046;-67
2021/10/03 04:52:41;;;;;;;8.05;6.53;;;12.40;77.00;;;;;;5055764;28;20090;-67
2021/10/03 04:55:09;;;;;;;8.75;6.90;;;12.30;77.10;;;;;;5054953;28;20144;-67
2021/10/03 04:57:35;;;;;;;7.80;6.40;;;12.30;77.30;;;;;;5054782;28;20033;-66
2021/10/03 05:00:01;;;;;;;18.00;12.27;;;12.30;77.50;;;;;;5055791;28;20405;-67
2021/10/03 05:02:27;;;;;;;10.52;7.40;;;12.30;77.60;;;;;;5055853;28;20029;-65
2021/10/03 05:04:53;;;;;;;9.32;7.70;;;12.30;77.70;;;;;;5056846;28;20033;-66
2021/10/03 05:07:18;;;;;;;27.95;18.33;;;12.30;78.60;;;;;;5055146;28;20382;-67
2021/10/03 05:09:44;;;;;;;46.30;28.08;;;12.30;77.90;;;;;;5057835;28;20128;-67
2021/10/03 05:12:10;;;;;;;38.30;21.17;;;12.30;78.20;;;;;;5052908;28;20474;-66
2021/10/03 05:14:35;;;;;;;20.77;12.95;;;12.30;78.30;;;;;;5053904;28;20412;-66
2021/10/03 05:17:01;;;;;;;18.42;12.48;;;12.30;78.70;;;;;;5053753;28;20075;-67
2021/10/03 05:19:27;;;;;;;13.82;11.25;;;12.30;79.00;;;;;;5057084;28;20044;-66
2021/10/03 05:21:52;;;;;;;10.23;8.60;;;12.30;79.10;;;;;;5054705;28;20031;-66
2021/10/03 05:24:18;;;;;;;10.23;8.65;;;12.30;79.20;;;;;;5053834;28;20033;-66
2021/10/03 05:26:44;;;;;;;9.80;8.80;;;12.30;79.20;;;;;;5055017;28;20043;-66
2021/10/03 05:29:09;;;;;;;9.50;8.52;;;12.30;79.20;;;;;;5056227;28;20028;-66
2021/10/03 05:31:35;;;;;;;6.72;6.13;;;12.30;79.30;;;;;;5053112;28;20051;-66
2021/10/03 05:34:01;;;;;;;7.45;6.65;;;12.30;79.20;;;;;;5051548;28;20069;-66
2021/10/03 05:36:26;;;;;;;9.63;6.90;;;12.30;79.10;;;;;;5050094;28;20033;-66
2021/10/03 05:38:56;;;;;;;8.00;7.20;;;12.30;79.30;;;;;;5049787;28;20497;-67
2021/10/03 05:41:23;;;;;;;7.85;6.45;;;12.30;79.40;;;;;;5053942;28;20041;-66
2021/10/03 05:43:49;;;;;;;9.30;6.50;;;12.30;79.40;;;;;;5052015;28;20110;-66
2021/10/03 05:46:15;;;;;;;9.20;7.30;;;12.30;79.40;;;;;;5053770;28;20504;-66
2021/10/03 05:48:41;;;;;;;7.60;6.55;;;12.30;79.40;;;;;;5055981;28;20416;-66
2021/10/03 05:51:06;;;;;;;7.85;7.00;;;12.30;79.40;;;;;;5058681;28;20033;-66
2021/10/03 05:53:34;;;;;;;7.35;6.47;;;12.30;79.60;;;;;;5057145;28;20035;-66
2021/10/03 05:56:00;;;;;;;7.68;6.65;;;12.30;79.70;;;;;;5058702;28;20386;-67
2021/10/03 05:58:26;;;;;;;8.82;7.85;;;12.30;79.80;;;;;;5057211;28;20047;-66
2021/10/03 06:00:51;;;;;;;8.23;7.07;;;12.40;79.80;;;;;;5057118;28;20033;-66
2021/10/03 06:03:17;;;;;;;7.57;6.75;;;12.40;79.80;;;;;;5050885;28;20454;-66
2021/10/03 06:05:42;;;;;;;7.68;6.78;;;12.40;79.80;;;;;;5058032;28;20065;-66
2021/10/03 06:08:08;;;;;;;9.13;7.40;;;12.40;79.80;;;;;;5056761;28;20032;-66
2021/10/03 06:10:34;;;;;;;10.40;8.50;;;12.40;80.00;;;;;;5055028;28;20029;-66
2021/10/03 06:12:59;;;;;;;8.65;7.50;;;12.50;80.10;;;;;;5058685;28;20041;-66
2021/10/03 06:15:25;;;;;;;8.80;7.43;;;12.50;80.50;;;;;;5057091;28;20086;-66
2021/10/03 06:17:51;;;;;;;12.02;8.10;;;12.50;80.60;;;;;;5058015;28;20033;-67
2021/10/03 06:20:16;;;;;;;9.18;8.15;;;12.60;80.80;;;;;;5059285;28;20029;-66
2021/10/03 06:22:45;;;;;;;9.02;7.38;;;12.60;80.80;;;;;;5056542;28;20044;-66
2021/10/03 06:25:12;;;;;;;9.80;8.55;;;12.60;81.00;;;;;;5057120;28;20048;-66
2021/10/03 06:27:38;;;;;;;9.80;7.15;;;12.60;81.10;;;;;;5055545;28;20033;-66
2021/10/03 06:30:05;;;;;;;8.70;7.30;;;12.70;81.00;;;;;;5058048;28;20040;-66
2021/10/03 06:32:31;;;;;;;9.75;7.88;;;12.70;81.00;;;;;;5055161;28;20041;-66
2021/10/03 06:34:56;;;;;;;10.18;7.63;;;12.70;81.00;;;;;;5054426;28;20381;-67
2021/10/03 06:37:22;;;;;;;9.70;7.65;;;12.80;81.00;;;;;;5058173;28;20048;-67
2021/10/03 06:39:48;;;;;;;8.60;7.07;;;12.80;81.00;;;;;;5056559;28;20025;-66
2021/10/03 06:42:14;;;;;;;9.45;6.63;;;12.90;81.00;;;;;;5046139;28;20180;-67
2021/10/03 06:44:39;;;;;;;8.77;6.38;;;12.90;81.00;;;;;;5049735;28;20487;-66
2021/10/03 06:47:08;;;;;;;7.40;6.15;;;13.00;80.80;;;;;;5058029;28;20579;-67
2021/10/03 06:49:35;;;;;;;6.40;5.80;;;13.00;80.60;;;;;;5057200;28;20098;-66
2021/10/03 06:52:01;;;;;;;9.75;8.43;;;13.10;80.60;;;;;;5057611;28;20040;-66
2021/10/03 06:54:27;;;;;;;10.88;5.95;;;13.10;80.40;;;;;;5057258;28;20051;-66
2021/10/03 06:56:53;;;;;;;7.38;6.30;;;13.10;80.30;;;;;;5056999;28;20044;-67
2021/10/03 06:59:18;;;;;;;9.77;7.47;;;13.20;80.30;;;;;;5052156;28;20033;-67
2021/10/03 07:01:44;;;;;;;9.38;7.68;;;13.20;80.10;;;;;;5047612;28;20126;-64
2021/10/03 07:04:10;;;;;;;9.35;7.50;;;13.20;80.20;;;;;;5046181;28;20128;-66
2021/10/03 07:06:35;;;;;;;8.82;7.03;;;13.30;80.30;;;;;;5042213;28;20104;-66
2021/10/03 07:09:01;;;;;;;9.48;8.45;;;13.40;80.30;;;;;;5038825;28;20033;-66
2021/10/03 07:11:27;;;;;;;8.07;6.80;;;13.40;80.50;;;;;;5026860;28;20044;-67
2021/10/03 07:13:52;;;;;;;9.23;7.30;;;13.40;80.70;;;;;;5026925;28;20033;-66
2021/10/03 07:16:18;;;;;;;8.10;6.95;;;13.50;80.80;;;;;;5040993;28;20404;-67
2021/10/03 07:18:44;;;;;;;10.50;6.95;;;13.50;80.60;;;;;;5050756;28;20049;-67
2021/10/03 07:21:10;;;;;;;9.45;7.40;;;13.60;80.50;;;;;;5053207;28;20408;-67
2021/10/03 07:23:36;;;;;;;8.90;7.30;;;13.60;80.60;;;;;;5046374;28;20541;-66
2021/10/03 07:26:03;;;;;;;7.97;7.18;;;13.70;80.70;;;;;;5049163;28;20040;-66
2021/10/03 07:28:29;;;;;;;8.43;7.07;;;13.70;80.70;;;;;;5051670;28;20033;-67
2021/10/03 07:30:54;;;;;;;8.60;6.93;;;13.80;80.80;;;;;;5048312;28;20043;-67
2021/10/03 07:33:20;;;;;;;8.93;6.95;;;13.80;80.80;;;;;;5049653;28;20110;-68
2021/10/03 07:35:47;;;;;;;7.35;6.13;;;13.90;81.00;;;;;;5050536;28;20450;-66
2021/10/03 07:38:12;;;;;;;10.13;6.47;;;13.90;81.00;;;;;;5050384;28;20033;-66
2021/10/03 07:40:38;;;;;;;8.13;6.90;;;14.00;81.20;;;;;;5050610;28;20419;-65
2021/10/03 07:43:04;;;;;;;6.97;6.28;;;14.10;81.40;;;;;;5050884;28;20033;-67
2021/10/03 07:45:30;;;;;;;8.02;6.45;;;14.20;81.30;;;;;;5052531;28;20031;-67
2021/10/03 07:47:55;;;;;;;6.78;6.07;;;14.20;81.20;;;;;;5051386;28;20660;-67
2021/10/03 07:50:21;;;;;;;8.05;6.88;;;14.30;81.10;;;;;;5047393;28;20051;-67
2021/10/03 07:52:47;;;;;;;7.95;6.43;;;14.50;81.20;;;;;;5050293;28;20048;-67
2021/10/03 07:55:13;;;;;;;7.43;6.05;;;14.60;81.20;;;;;;5053520;28;20051;-67
2021/10/03 07:57:40;;;;;;;7.20;6.25;;;14.70;81.00;;;;;;5054666;28;20789;-67
2021/10/03 08:00:06;;;;;;;8.40;6.22;;;14.80;81.00;;;;;;5064716;28;20036;-67
2021/10/03 08:02:32;;;;;;;6.80;6.10;;;14.90;81.00;;;;;;5052145;28;20032;-67
2021/10/03 08:04:57;;;;;;;6.57;5.85;;;15.00;80.60;;;;;;5051529;28;20036;-67
2021/10/03 08:07:23;;;;;;;6.97;5.85;;;15.10;80.30;;;;;;5052455;28;20065;-66
2021/10/03 08:09:49;;;;;;;6.30;5.70;;;15.20;80.00;;;;;;5050727;28;20059;-67
2021/10/03 08:12:14;;;;;;;6.45;5.72;;;15.30;79.60;;;;;;5048308;28;20041;-67
2021/10/03 08:14:41;;;;;;;8.35;6.60;;;15.40;79.30;;;;;;5051463;28;20040;-68
2021/10/03 08:17:07;;;;;;;7.03;5.97;;;15.50;79.10;;;;;;5050241;28;20037;-67
2021/10/03 08:19:33;;;;;;;9.45;6.18;;;15.60;78.70;;;;;;5051379;28;20748;-67
2021/10/03 08:21:58;;;;;;;6.55;5.63;;;15.60;78.60;;;;;;5049413;28;20563;-66
2021/10/03 08:24:24;;;;;;;7.95;6.07;;;15.70;78.30;;;;;;5047708;28;20108;-67
2021/10/03 08:26:50;;;;;;;8.00;5.45;;;15.70;78.10;;;;;;5051786;28;20033;-67
2021/10/03 08:29:18;;;;;;;8.77;5.93;;;15.80;78.00;;;;;;5050460;28;20557;-67
2021/10/03 08:31:43;;;;;;;6.90;6.20;;;15.90;77.90;;;;;;5049917;28;20832;-66
2021/10/03 08:34:09;;;;;;;6.07;5.47;;;15.90;77.50;;;;;;5051115;28;20135;-66
2021/10/03 08:36:34;;;;;;;6.22;5.60;;;16.00;77.70;;;;;;5054349;28;20104;-67
2021/10/03 08:39:00;;;;;;;8.45;5.72;;;16.00;77.70;;;;;;5048815;28;20136;-66
2021/10/03 08:41:26;;;;;;;7.93;6.28;;;16.10;77.80;;;;;;5052266;28;20112;-67
2021/10/03 08:43:54;;;;;;;6.82;5.65;;;16.10;77.70;;;;;;5049837;28;20116;-67
2021/10/03 08:46:25;;;;;;;5.50;5.00;;;16.20;77.70;;;;;;5051419;28;20103;-67
2021/10/03 08:48:51;;;;;;;6.57;5.65;;;16.20;77.50;;;;;;5048345;28;20119;-66
2021/10/03 08:51:17;;;;;;;6.10;5.50;;;16.30;77.70;;;;;;5046959;28;20586;-67
2021/10/03 08:53:43;;;;;;;6.32;5.72;;;16.30;78.60;;;;;;5046665;28;20041;-66
2021/10/03 08:56:08;;;;;;;6.32;5.68;;;16.40;77.60;;;;;;5049846;28;20576;-66
2021/10/03 08:58:34;;;;;;;7.10;5.80;;;16.40;77.50;;;;;;5053376;28;20036;-67
2021/10/03 09:01:00;;;;;;;6.97;5.55;;;16.50;77.50;;;;;;5051402;28;20112;-66
2021/10/03 09:03:25;;;;;;;7.32;5.57;;;16.60;77.50;;;;;;5051841;28;20543;-66
2021/10/03 09:05:59;;;;;;;7.07;5.70;;;16.60;77.40;;;;;;5047328;28;20523;-67
2021/10/03 09:08:28;;;;;;;6.95;5.60;;;16.70;77.30;;;;;;5049276;28;20071;-67
2021/10/03 09:11:16;;;;;;;7.30;5.78;;;16.80;77.20;;;;;;5048052;28;20040;-67
2021/10/03 09:13:45;;;;;;;8.95;5.85;;;16.90;77.00;;;;;;5050648;28;20033;-67
2021/10/03 09:16:43;;;;;;;6.75;5.32;;;16.90;77.00;;;;;;5048642;28;20102;-66
2021/10/03 09:19:13;;;;;;;6.32;5.63;;;17.00;76.80;;;;;;4993604;28;20046;-67
2021/10/03 09:21:43;;;;;;;6.90;5.57;;;17.10;76.70;;;;;;5026329;28;20037;-66
2021/10/03 09:24:12;;;;;;;6.88;5.60;;;17.20;76.60;;;;;;5027471;28;20060;-66
2021/10/03 09:26:51;;;;;;;6.25;5.65;;;17.20;76.50;;;;;;5031411;28;20034;-66
2021/10/03 09:29:22;;;;;;;5.93;5.32;;;17.30;76.30;;;;;;5029568;28;20048;-66
2021/10/03 09:32:04;;;;;;;6.15;5.55;;;17.40;76.20;;;;;;5030161;28;20071;-66
2021/10/03 09:34:31;;;;;;;5.93;5.22;;;17.50;76.00;;;;;;5023619;28;20128;-66
2021/10/03 09:36:58;;;;;;;7.50;5.60;;;17.60;76.00;;;;;;5028884;28;20060;-66
2021/10/03 09:39:23;;;;;;;5.88;5.28;;;17.60;76.00;;;;;;5028236;28;20509;-66
2021/10/03 09:41:49;;;;;;;5.68;5.18;;;17.70;75.70;;;;;;5029538;28;20037;-67
2021/10/03 09:44:16;;;;;;;5.88;5.20;;;17.80;75.40;;;;;;5030555;28;20041;-67
2021/10/03 09:46:52;;;;;;;6.72;5.40;;;17.80;75.10;;;;;;5029424;28;20034;-66
2021/10/03 09:49:26;;;;;;;5.63;5.05;;;17.90;74.70;;;;;;5022516;28;20049;-67
2021/10/03 09:51:52;;;;;;;5.65;5.10;;;18.00;74.60;;;;;;5026880;28;20033;-65
2021/10/03 09:54:20;;;;;;;5.53;4.97;;;18.10;74.70;;;;;;5043364;28;20029;-67
2021/10/03 09:56:47;;;;;;;5.57;4.88;;;18.10;74.40;;;;;;5031594;28;20037;-66
2021/10/03 09:59:13;;;;;;;5.47;4.97;;;18.20;74.30;;;;;;5026168;28;20095;-66
2021/10/03 10:01:44;;;;;;;5.35;4.85;;;18.30;74.20;;;;;;5034884;28;20061;-67
2021/10/03 10:04:12;;;;;;;5.10;4.65;;;18.40;74.20;;;;;;5034160;28;20037;-67
2021/10/03 10:06:38;;;;;;;6.22;5.07;;;18.40;74.30;;;;;;5034323;28;20524;-67
2021/10/03 10:09:11;;;;;;;6.35;5.40;;;18.50;74.30;;;;;;5035432;28;20037;-67
2021/10/03 10:11:51;;;;;;;6.53;5.38;;;18.60;73.80;;;;;;5033838;28;20067;-67
2021/10/03 10:14:25;;;;;;;6.43;4.82;;;18.70;74.50;;;;;;5034682;28;20556;-67
2021/10/03 10:16:53;;;;;;;5.67;5.03;;;18.80;73.90;;;;;;5056065;28;20583;-66
2021/10/03 10:19:32;;;;;;;7.15;5.18;;;18.80;73.50;;;;;;5055533;28;20137;-67
2021/10/03 10:22:16;;;;;;;6.05;5.35;;;18.90;73.00;;;;;;5054300;28;20494;-67
2021/10/03 10:24:47;;;;;;;5.30;4.80;;;19.00;73.00;;;;;;5054477;28;20089;-67
2021/10/03 10:27:18;;;;;;;5.57;4.90;;;19.10;73.20;;;;;;5054523;28;20033;-67
2021/10/03 10:30:12;;;;;;;5.43;4.88;;;19.20;73.20;;;;;;5055439;28;20021;-66
2021/10/03 10:32:56;;;;;;;7.18;6.47;;;19.30;72.80;;;;;;5052874;28;20087;-66
2021/10/03 10:35:27;;;;;;;11.63;7.13;;;19.40;72.30;;;;;;5054867;28;20052;-67
2021/10/03 10:37:55;;;;;;;6.97;6.22;;;19.40;72.50;;;;;;5053036;28;20172;-67
2021/10/03 10:40:24;;;;;;;8.05;6.38;;;19.50;72.50;;;;;;5054896;28;20037;-67
2021/10/03 10:42:55;;;;;;;7.70;5.75;;;19.50;72.30;;;;;;5055532;28;20176;-67
2021/10/03 10:45:27;;;;;;;6.45;5.78;;;19.60;72.40;;;;;;5058480;28;20036;-67
2021/10/03 10:48:11;;;;;;;6.28;5.53;;;19.70;72.40;;;;;;5057877;28;20605;-67
2021/10/03 10:50:48;;;;;;;6.63;5.82;;;19.70;72.50;;;;;;5057041;28;20047;-67
2021/10/03 10:53:17;;;;;;;6.35;5.28;;;19.80;72.50;;;;;;5058362;28;20043;-67
2021/10/03 10:55:59;;;;;;;6.30;5.45;;;19.80;72.30;;;;;;5058237;28;21765;-67
2021/10/03 10:58:25;;;;;;;5.60;5.05;;;20.00;71.60;;;;;;5055371;28;20033;-67
2021/10/03 11:00:58;;;;;;;6.45;5.75;;;20.00;72.00;;;;;;5054630;28;20042;-67
2021/10/03 11:03:42;;;;;;;7.78;6.97;;;20.10;72.10;;;;;;5057585;28;20033;-67
2021/10/03 11:06:12;;;;;;;6.85;6.15;;;20.20;71.40;;;;;;5055774;28;20431;-67
2021/10/03 11:08:58;;;;;;;6.75;6.05;;;20.30;71.50;;;;;;5054836;28;20032;-67
2021/10/03 11:11:28;;;;;;;5.75;5.25;;;20.40;71.20;;;;;;5047225;28;20091;-67
2021/10/03 11:13:59;;;;;;;7.43;5.70;;;20.50;70.90;;;;;;5051417;28;20025;-67
2021/10/03 11:16:38;;;;;;;5.70;5.10;;;20.50;70.90;;;;;;5055856;28;20118;-67
2021/10/03 11:19:16;;;;;;;6.22;5.32;;;20.60;70.00;;;;;;5057802;28;20520;-66
2021/10/03 11:21:49;;;;;;;6.72;5.30;;;20.70;71.30;;;;;;5055242;28;20458;-67
2021/10/03 11:24:21;;;;;;;5.93;4.55;;;20.70;69.90;;;;;;5052983;28;20040;-67
2021/10/03 11:27:00;;;;;;;7.97;5.03;;;20.80;70.20;;;;;;5053957;28;20527;-67
2021/10/03 11:29:32;;;;;;;5.57;4.47;;;20.90;69.50;;;;;;5053267;28;20025;-67
2021/10/03 11:32:03;;;;;;;5.90;5.18;;;21.00;69.90;;;;;;5051289;28;20146;-67
2021/10/03 11:34:44;;;;;;;5.55;4.50;;;21.10;69.60;;;;;;5048162;28;20033;-67
2021/10/03 11:37:29;;;;;;;6.30;4.25;;;21.30;69.20;;;;;;5054510;28;20475;-67
2021/10/03 11:40:15;;;;;;;5.53;4.50;;;21.30;69.50;;;;;;5049791;28;20741;-67
2021/10/03 11:42:55;;;;;;;5.07;4.43;;;21.50;69.20;;;;;;5049582;28;20041;-67
2021/10/03 11:45:29;;;;;;;4.50;4.10;;;21.60;68.90;;;;;;5047997;28;20041;-68
2021/10/03 11:47:55;;;;;;;4.53;4.13;;;21.70;68.80;;;;;;5053906;28;20033;-67
2021/10/03 11:50:28;;;;;;;4.75;4.35;;;21.80;68.90;;;;;;5056121;28;20504;-68
2021/10/03 11:53:19;;;;;;;4.57;4.18;;;21.90;69.20;;;;;;5036175;28;20584;-67
2021/10/03 11:55:46;;;;;;;5.32;4.07;;;22.00;68.00;;;;;;5035801;28;20523;-67
2021/10/03 11:58:16;;;;;;;4.47;4.07;;;22.10;68.50;;;;;;5032243;28;20045;-67
2021/10/03 12:00:50;;;;;;;3.50;3.20;;;22.20;68.30;;;;;;5037015;28;20039;-67
2021/10/03 12:03:16;;;;;;;3.40;2.83;;;22.30;68.00;;;;;;5055329;28;20033;-67
2021/10/03 12:05:43;;;;;;;2.60;2.40;;;22.40;67.40;;;;;;5054568;28;20072;-67
2021/10/03 12:08:11;;;;;;;2.97;2.72;;;22.50;66.90;;;;;;5051406;28;20033;-67
2021/10/03 12:10:47;;;;;;;3.28;2.35;;;22.60;66.20;;;;;;5053188;28;20029;-68
2021/10/03 12:13:24;;;;;;;2.40;2.20;;;22.70;65.50;;;;;;5052778;28;20041;-67
2021/10/03 12:15:58;;;;;;;2.45;2.22;;;22.70;66.00;;;;;;5052378;28;20045;-68
2021/10/03 12:18:30;;;;;;;2.17;1.98;;;22.80;65.00;;;;;;5051097;28;20029;-68
2021/10/03 12:20:55;;;;;;;2.08;1.98;;;22.80;65.20;;;;;;5053715;28;20146;-67
2021/10/03 12:23:38;;;;;;;3.90;1.77;;;23.00;65.00;;;;;;5052325;28;20108;-68
2021/10/03 12:26:26;;;;;;;2.83;2.50;;;23.00;64.00;;;;;;5052067;28;20116;-67
2021/10/03 12:28:54;;;;;;;3.47;2.35;;;23.10;63.70;;;;;;5056533;28;20116;-67
2021/10/03 12:31:49;;;;;;;2.38;2.17;;;23.20;64.10;;;;;;5052841;28;20151;-68
2021/10/03 12:34:14;;;;;;;3.20;1.73;;;23.30;63.50;;;;;;5052595;28;20121;-68
2021/10/03 12:37:04;;;;;;;1.98;1.85;;;23.30;63.90;;;;;;5055240;28;20163;-68
2021/10/03 12:39:34;;;;;;;2.03;1.67;;;23.40;62.80;;;;;;5049726;28;20067;-67
2021/10/03 12:42:27;;;;;;;1.45;1.33;;;23.50;63.00;;;;;;5052743;28;20033;-67
2021/10/03 12:44:55;;;;;;;1.70;1.60;;;23.60;61.90;;;;;;5031567;28;20044;-67
2021/10/03 12:47:22;;;;;;;2.45;1.48;;;23.80;62.70;;;;;;5030248;28;20026;-67
2021/10/03 12:49:48;;;;;;;1.58;1.30;;;23.80;62.10;;;;;;5035322;28;20025;-67
2021/10/03 12:52:15;;;;;;;1.45;1.35;;;23.90;62.00;;;;;;5028651;28;20044;-67